YCBG weather

Hobart Cambridge Airport
Tasmania, Australia

Public forecast

Using degrees Celsius for public forecast. Weather courtesy of forecast.io.

METAR (pilot weather report)

Closest report is Hobart International Airport, 1.6 nm (3.0 km) ESE. Retrieved 2017/05/25 12:00 UTC (10 minutes ago):

YMHB 251200Z 13004KT 9999 FEW040 BKN240 11/09 Q1011 RF00.0/000.0

TAF (pilot weather forecast)

Closest forecast is Hobart International Airport, 1.6 nm (3.0 km) ESE. Retrieved 2017/05/25 12:36 UTC (0 seconds ago):

TAF YMHB 251104Z 2512/2612 31010KT 9999 SCT040 FM260800 35008KT CAVOK